createdAt,value
2022-10-17T00:02:11.015Z,102190.38
2022-10-17T00:04:40.794Z,102188.53
2022-10-17T00:07:07.350Z,102196.34
2022-10-17T00:09:33.969Z,102188.41
2022-10-17T00:12:00.652Z,102191.88
2022-10-17T00:14:27.234Z,102177.81
2022-10-17T00:16:53.797Z,102192.72
2022-10-17T00:19:20.442Z,102182.16
2022-10-17T00:21:50.809Z,102183.81
2022-10-17T00:24:17.401Z,102183.00
2022-10-17T00:26:44.676Z,102170.69
2022-10-17T00:29:11.300Z,102175.00
2022-10-17T00:31:37.910Z,102162.72
2022-10-17T00:34:04.667Z,102147.66
2022-10-17T00:36:31.429Z,102168.72
2022-10-17T00:38:59.539Z,102173.13
2022-10-17T00:41:32.338Z,102169.53
2022-10-17T00:44:13.033Z,102178.28
2022-10-17T00:46:40.722Z,102172.97
2022-10-17T00:49:10.025Z,102183.47
2022-10-17T00:51:57.695Z,102172.16
2022-10-17T00:54:28.908Z,102173.38
2022-10-17T00:56:55.791Z,102179.69
2022-10-17T00:59:23.554Z,102171.16
2022-10-17T01:02:04.780Z,102176.63
2022-10-17T01:04:32.495Z,102166.03
2022-10-17T01:06:59.117Z,102181.75
2022-10-17T01:09:27.331Z,102185.19
2022-10-17T01:12:05.414Z,102174.91
2022-10-17T01:14:37.700Z,102173.31
2022-10-17T01:17:41.704Z,102167.38
2022-10-17T01:20:20.300Z,102167.38
2022-10-17T01:23:00.016Z,102158.84
2022-10-17T01:25:47.271Z,102136.94
2022-10-17T01:28:50.358Z,102158.84
2022-10-17T01:31:26.260Z,102151.81
2022-10-17T01:34:17.798Z,102156.19
2022-10-17T01:37:02.529Z,102155.19
2022-10-17T01:39:47.922Z,102151.78
2022-10-17T01:42:33.487Z,102145.69
2022-10-17T01:45:09.116Z,102150.88
2022-10-17T01:47:35.988Z,102153.38
2022-10-17T01:50:21.561Z,102155.34
2022-10-17T01:53:02.812Z,102151.66
2022-10-17T01:55:34.953Z,102157.81
2022-10-17T01:58:16.716Z,102129.72
2022-10-17T02:00:45.585Z,102163.34
2022-10-17T02:03:16.695Z,102147.56
2022-10-17T02:05:44.844Z,102153.06
2022-10-17T02:08:13.830Z,102158.38
2022-10-17T02:10:43.015Z,102145.13
2022-10-17T02:13:23.410Z,102132.66
2022-10-17T02:16:01.723Z,102139.31
2022-10-17T02:18:46.503Z,102134.75
2022-10-17T02:21:24.326Z,102131.22
2022-10-17T02:24:20.562Z,102130.94
2022-10-17T02:27:10.344Z,102125.47
2022-10-17T02:29:45.749Z,102120.00
2022-10-17T02:34:50.899Z,102114.63
2022-10-17T02:37:23.039Z,102109.22
2022-10-17T02:39:50.920Z,102106.44
2022-10-17T02:42:18.888Z,102108.94
2022-10-17T02:44:47.088Z,102112.47
2022-10-17T02:47:45.663Z,102119.31
2022-10-17T02:50:12.373Z,102106.88
2022-10-17T02:52:59.205Z,102117.31
2022-10-17T02:55:36.170Z,102101.41
2022-10-17T02:58:19.065Z,102108.50
2022-10-17T03:00:46.159Z,102098.03
2022-10-17T03:03:25.901Z,102103.28
2022-10-17T03:05:53.253Z,102094.47
2022-10-17T03:08:20.724Z,102105.00
2022-10-17T03:10:48.911Z,102097.16
2022-10-17T03:13:16.648Z,102101.59
2022-10-17T03:15:43.494Z,102099.75
2022-10-17T03:18:10.142Z,102103.22
2022-10-17T03:20:36.720Z,102086.63
2022-10-17T03:23:03.503Z,102101.59
2022-10-17T03:25:30.236Z,102100.66
2022-10-17T03:27:59.447Z,102106.66
2022-10-17T03:30:26.053Z,102096.09
2022-10-17T03:32:52.988Z,102093.47
2022-10-17T03:35:19.680Z,102095.38
2022-10-17T03:37:46.260Z,102095.31
2022-10-17T03:40:16.652Z,102088.38
2022-10-17T03:42:43.266Z,102088.31
2022-10-17T03:45:10.112Z,102088.31
2022-10-17T03:47:36.783Z,102070.78
2022-10-17T03:50:04.505Z,102064.66
2022-10-17T03:52:31.157Z,102087.50
2022-10-17T03:55:02.012Z,102078.81
2022-10-17T03:57:28.814Z,102075.25
2022-10-17T03:59:55.646Z,102079.72
2022-10-17T04:02:22.293Z,102069.22
2022-10-17T04:04:48.893Z,102073.69
2022-10-17T04:07:15.523Z,102075.50
2022-10-17T04:09:43.663Z,102068.56
2022-10-17T17:05:39.057Z,101191.69
2022-10-17T17:08:08.021Z,101180.25
2022-10-17T17:10:38.292Z,101183.69
2022-10-17T17:13:04.915Z,101195.00
2022-10-17T17:15:31.490Z,101190.56
2022-10-17T17:18:00.474Z,101174.78
2022-10-17T17:20:30.828Z,101184.25
2022-10-17T17:22:57.426Z,101192.94
2022-10-17T17:25:24.133Z,101179.06
2022-10-17T17:27:50.780Z,101177.25
2022-10-17T17:30:17.504Z,101164.13
2022-10-17T17:32:45.171Z,101184.16
2022-10-17T17:35:11.814Z,101180.69
2022-10-17T17:37:38.368Z,101185.03
2022-10-17T17:40:06.231Z,101142.50
2022-10-17T17:42:32.876Z,101163.19
2022-10-17T17:44:59.498Z,101189.34
2022-10-17T17:47:29.020Z,101167.41
2022-10-17T17:49:56.108Z,101164.78
2022-10-17T17:52:22.704Z,101139.47
2022-10-17T17:54:49.331Z,101154.22
2022-10-17T17:57:17.448Z,101141.09
2022-10-17T17:59:44.047Z,101141.13
2022-10-17T18:02:11.403Z,101125.34
2022-10-17T18:04:38.866Z,101148.91
2022-10-17T18:07:06.694Z,101126.19
2022-10-17T18:09:33.352Z,101134.84
2022-10-17T18:12:00.730Z,101124.38
2022-10-17T18:14:27.464Z,101126.97
2022-10-17T18:16:54.039Z,101132.16
2022-10-17T18:19:23.659Z,101116.34
2022-10-17T18:21:50.249Z,101114.59
2022-10-17T18:24:16.847Z,101119.88
2022-10-17T18:26:43.449Z,101119.78
2022-10-17T18:29:12.671Z,101093.75
2022-10-17T18:31:39.325Z,101113.72
2022-10-17T18:34:06.040Z,101113.66
2022-10-17T18:36:34.053Z,101121.41
2022-10-17T18:39:01.963Z,101106.63
2022-10-17T18:41:28.873Z,101114.47
2022-10-17T18:43:56.458Z,101108.28
2022-10-17T18:46:25.350Z,101089.91
2022-10-17T18:48:53.233Z,101099.50
2022-10-17T18:51:22.258Z,101082.88
2022-10-17T18:53:51.321Z,101088.19
2022-10-17T18:56:19.248Z,101081.22
2022-10-17T18:58:46.208Z,101070.69
2022-10-17T19:01:18.597Z,101088.91
2022-10-17T19:03:47.238Z,101075.00
2022-10-17T19:06:15.944Z,101097.63
2022-10-17T19:08:43.398Z,101093.19
2022-10-17T19:11:22.912Z,101095.06
2022-10-17T19:13:50.263Z,101083.69
2022-10-17T19:16:24.975Z,101080.03
2022-10-17T19:19:11.612Z,101076.59
2022-10-17T19:21:39.145Z,101073.00
2022-10-17T19:24:08.185Z,101073.94
2022-10-17T19:26:36.607Z,101068.69
2022-10-17T19:29:05.329Z,101055.69
2022-10-17T19:31:33.727Z,101078.31
2022-10-17T19:34:00.634Z,101075.53
2022-10-17T19:36:32.449Z,101072.94
2022-10-17T19:39:05.364Z,101073.78
2022-10-17T19:41:33.047Z,101063.31
2022-10-17T19:44:00.737Z,101066.84
2022-10-17T19:46:29.216Z,101076.38
2022-10-17T19:48:56.330Z,101045.78
2022-10-17T19:51:24.636Z,101059.69
2022-10-17T19:53:52.457Z,101041.38
2022-10-17T19:56:24.468Z,101036.22
2022-10-17T19:58:51.693Z,101035.25
2022-10-17T20:01:28.543Z,101040.50
2022-10-17T20:03:55.847Z,101032.66
2022-10-17T20:06:22.576Z,101018.72
2022-10-17T20:08:50.097Z,101025.84
2022-10-17T20:11:19.074Z,101036.25
2022-10-17T20:13:46.053Z,101022.19
2022-10-17T20:16:18.359Z,101029.19
2022-10-17T20:18:45.104Z,101030.16
2022-10-17T20:21:17.168Z,101005.69
2022-10-17T20:23:45.648Z,100996.97
2022-10-17T20:29:03.857Z,101032.53
2022-10-17T20:31:30.594Z,101029.88
2022-10-17T20:33:58.900Z,101028.25
2022-10-17T20:36:26.375Z,101034.34
2022-10-17T20:38:57.339Z,101029.09
2022-10-17T20:41:25.417Z,101034.38
2022-10-17T20:43:53.350Z,101038.88
2022-10-17T20:46:36.459Z,101027.59
2022-10-17T20:49:05.811Z,101024.88
2022-10-17T20:51:32.776Z,101024.81
2022-10-17T20:53:59.489Z,101026.56
2022-10-17T20:56:30.413Z,101013.38
2022-10-17T20:58:59.855Z,101032.50
2022-10-17T21:01:27.562Z,101034.19
2022-10-17T21:03:54.410Z,101019.34
2022-10-17T21:06:23.221Z,101021.81
2022-10-17T21:08:52.312Z,101025.28
2022-10-17T21:11:22.447Z,101044.47
2022-10-17T21:13:55.664Z,101035.56
2022-10-17T21:16:22.552Z,101035.59
2022-10-17T21:18:52.728Z,101032.94
2022-10-17T21:21:21.845Z,101025.94
2022-10-17T21:23:50.401Z,101018.19
2022-10-17T21:26:18.907Z,101026.78
2022-10-17T21:28:47.004Z,101014.53
2022-10-17T21:31:22.374Z,101025.03
2022-10-17T21:33:52.391Z,101013.63
2022-10-17T21:36:19.863Z,101031.06
2022-10-17T21:38:48.729Z,101023.25
2022-10-17T21:41:19.572Z,101029.25
2022-10-17T21:43:47.029Z,101029.25
2022-10-17T21:46:17.418Z,101001.31
2022-10-17T21:48:45.373Z,101014.31
2022-10-17T21:51:15.107Z,101009.13
2022-10-17T21:53:42.822Z,101002.97
2022-10-17T21:56:11.715Z,101004.66
2022-10-17T21:58:38.331Z,100997.00
2022-10-17T22:01:10.592Z,100990.03
2022-10-17T22:03:44.090Z,101005.59
2022-10-17T22:09:21.244Z,101025.88
2022-10-17T22:11:50.639Z,101013.56
2022-10-17T22:14:19.724Z,100964.09
2022-10-17T22:16:47.803Z,101011.03
2022-10-17T22:19:17.487Z,101011.94
2022-10-17T22:21:44.636Z,101001.75
2022-10-17T22:24:13.670Z,100999.22
2022-10-17T22:26:42.306Z,101001.19
2022-10-17T22:29:09.699Z,101007.44
2022-10-17T22:31:37.412Z,101011.66
2022-10-17T22:34:05.712Z,101002.09
2022-10-17T22:36:33.403Z,101007.50
2022-10-17T22:38:59.992Z,101006.75
2022-10-17T22:41:29.628Z,100995.50
2022-10-17T22:43:56.369Z,101001.63
2022-10-17T22:46:23.132Z,101009.59
2022-10-17T22:48:49.832Z,100976.59
2022-10-17T22:51:16.502Z,101005.34
2022-10-17T22:53:43.198Z,101007.16
2022-10-17T22:56:13.673Z,101008.91
2022-10-17T22:58:40.403Z,101018.38
2022-10-17T23:01:08.595Z,101020.94
2022-10-17T23:03:39.076Z,101005.09
2022-10-17T23:06:05.811Z,100992.00
2022-10-17T23:08:32.563Z,100990.13
2022-10-17T23:11:00.621Z,101003.88
2022-10-17T23:13:27.253Z,101008.09
2022-10-17T23:15:55.612Z,101001.09
2022-10-17T23:18:23.849Z,100969.72
2022-10-17T23:20:50.808Z,100991.56
2022-10-17T23:23:18.747Z,100990.94
2022-10-17T23:25:45.660Z,100997.13
2022-10-17T23:28:13.035Z,100993.66
2022-10-17T23:30:40.302Z,100997.13
2022-10-17T23:33:08.656Z,100987.47
2022-10-17T23:35:35.595Z,100994.31
2022-10-17T23:38:02.540Z,101002.16
2022-10-17T23:40:29.704Z,101004.75
2022-10-17T23:42:56.351Z,100993.28
2022-10-17T23:45:22.971Z,101001.88
2022-10-17T23:47:49.695Z,100986.97
2022-10-17T23:50:16.561Z,100989.38
2022-10-17T23:52:43.284Z,100979.81
2022-10-17T23:58:57.033Z,100986.47
